Time;durP1;ratioP1;P1;durP2;ratioP2;P2;SDS_P1;SDS_P2;PMS_P1;PMS_P2;Temp;Humidity;BMP_temperature;BMP_pressure;BME280_temperature;BME280_humidity;BME280_pressure;Samples;Min_cycle;Max_cycle;Signal;HPM_P1;HPM_P2
2023/05/04 00:02:05;;;;;;;1.10;0.83;;;16.50;81.80;;;;;;4874736;29;20202;-78
2023/05/04 00:04:33;;;;;;;1.10;0.50;;;16.40;82.40;;;;;;4876372;29;20200;-78
2023/05/04 00:07:01;;;;;;;0.70;0.70;;;16.40;81.80;;;;;;4878012;29;20209;-77
2023/05/04 00:09:30;;;;;;;0.60;0.60;;;16.40;81.30;;;;;;4879546;29;20201;-79
2023/05/04 00:11:58;;;;;;;3.50;1.23;;;16.40;81.20;;;;;;4873860;29;20646;-79
2023/05/04 00:14:28;;;;;;;2.93;1.30;;;16.40;81.50;;;;;;4878174;29;20583;-78
2023/05/04 00:16:56;;;;;;;0.47;0.40;;;16.40;81.60;;;;;;4875290;29;20607;-79
2023/05/04 00:19:25;;;;;;;0.60;0.60;;;16.30;82.40;;;;;;4874431;29;20694;-78
2023/05/04 00:21:53;;;;;;;1.43;0.50;;;16.30;82.40;;;;;;4869726;29;20201;-78
2023/05/04 00:24:21;;;;;;;0.67;0.67;;;16.20;83.00;;;;;;4874679;29;20256;-78
2023/05/04 00:26:50;;;;;;;2.23;0.70;;;16.20;82.20;;;;;;4875689;29;20201;-79
2023/05/04 00:29:18;;;;;;;1.40;1.30;;;16.20;82.20;;;;;;4878410;29;20253;-78
2023/05/04 00:31:48;;;;;;;0.40;0.40;;;16.20;82.90;;;;;;4871437;29;20208;-78
2023/05/04 00:34:17;;;;;;;0.40;0.40;;;16.20;82.20;;;;;;4878035;29;20361;-77
2023/05/04 00:36:46;;;;;;;0.93;0.67;;;16.20;81.90;;;;;;4874603;29;20201;-78
2023/05/04 00:39:14;;;;;;;0.73;0.40;;;16.20;82.40;;;;;;4870876;29;20225;-78
2023/05/04 00:41:43;;;;;;;0.40;0.40;;;16.20;82.50;;;;;;4874986;29;20205;-79
2023/05/04 00:44:11;;;;;;;1.03;1.03;;;16.20;82.50;;;;;;4875802;29;20253;-78
2023/05/04 00:46:40;;;;;;;0.60;0.50;;;16.20;82.50;;;;;;4874878;29;20227;-78
2023/05/04 00:49:10;;;;;;;0.40;0.40;;;16.20;82.40;;;;;;4871624;29;20201;-78
2023/05/04 00:51:39;;;;;;;0.50;0.50;;;16.20;82.20;;;;;;4870472;29;20200;-79
2023/05/04 00:54:08;;;;;;;0.83;0.77;;;16.20;82.10;;;;;;4871915;29;20235;-77
2023/05/04 00:56:40;;;;;;;1.00;0.93;;;16.20;82.60;;;;;;4876664;29;20287;-78
2023/05/04 00:59:09;;;;;;;1.57;1.47;;;16.10;83.60;;;;;;4875838;29;20193;-78
2023/05/04 01:01:38;;;;;;;0.53;0.53;;;16.10;83.00;;;;;;4871868;29;20228;-78
2023/05/04 01:04:07;;;;;;;3.53;1.37;;;16.10;83.20;;;;;;4875578;29;20205;-77
2023/05/04 01:06:43;;;;;;;1.87;1.10;;;16.10;83.30;;;;;;4875977;29;20676;-79
2023/05/04 01:09:19;;;;;;;0.50;0.50;;;16.10;82.80;;;;;;4871752;29;20261;-78
2023/05/04 01:11:54;;;;;;;1.37;1.27;;;16.10;83.60;;;;;;4872495;29;20520;-78
2023/05/04 01:14:23;;;;;;;1.93;0.63;;;16.10;83.50;;;;;;4872251;29;20673;-79
2023/05/04 01:16:55;;;;;;;0.57;0.57;;;16.10;83.60;;;;;;4871546;29;20261;-79
2023/05/04 01:19:23;;;;;;;0.90;0.53;;;16.00;83.70;;;;;;4871949;29;20192;-78
2023/05/04 01:21:53;;;;;;;0.53;0.53;;;16.00;83.80;;;;;;4872420;29;20205;-79
2023/05/04 01:24:22;;;;;;;1.17;0.93;;;16.00;84.00;;;;;;4872153;29;20205;-77
2023/05/04 01:26:56;;;;;;;4.53;0.93;;;15.90;84.90;;;;;;4874678;29;20205;-78
2023/05/04 01:29:31;;;;;;;6.60;1.20;;;16.00;84.40;;;;;;4867511;29;20552;-80
2023/05/04 01:32:02;;;;;;;4.00;1.40;;;15.90;86.60;;;;;;4867987;29;20202;-79
2023/05/04 01:34:30;;;;;;;1.70;1.55;;;15.90;86.10;;;;;;4876554;29;20201;-79
2023/05/04 01:37:01;;;;;;;1.20;0.93;;;15.80;86.50;;;;;;4875474;29;20200;-79
2023/05/04 01:39:29;;;;;;;0.83;0.83;;;15.70;87.20;;;;;;4871894;29;20296;-78
2023/05/04 01:41:58;;;;;;;1.20;0.67;;;15.70;86.90;;;;;;4872711;29;20204;-79
2023/05/04 01:44:26;;;;;;;1.40;0.97;;;15.70;87.30;;;;;;4878889;29;20193;-80
2023/05/04 01:46:55;;;;;;;1.80;1.07;;;15.70;87.00;;;;;;4872660;29;20252;-80
2023/05/04 01:49:23;;;;;;;0.77;0.77;;;15.60;87.90;;;;;;4875732;29;20642;-80
2023/05/04 01:51:51;;;;;;;1.40;1.10;;;15.60;88.30;;;;;;4874671;29;20197;-81
2023/05/04 01:54:21;;;;;;;0.70;0.70;;;15.60;88.20;;;;;;4870401;29;20194;-80
2023/05/04 01:56:49;;;;;;;0.87;0.77;;;15.50;88.90;;;;;;4880566;29;20237;-81
2023/05/04 01:59:18;;;;;;;1.60;1.17;;;15.50;89.50;;;;;;4886023;29;20245;-81
2023/05/04 02:01:46;;;;;;;5.77;1.40;;;15.30;90.30;;;;;;4872692;29;20295;-81
2023/05/04 02:04:14;;;;;;;0.50;0.50;;;15.30;90.20;;;;;;4874773;29;20197;-79
2023/05/04 02:06:43;;;;;;;1.47;0.70;;;15.30;90.20;;;;;;4872900;29;20201;-80
2023/05/04 02:09:11;;;;;;;1.27;0.97;;;15.20;90.70;;;;;;4872221;29;20192;-79
2023/05/04 02:11:41;;;;;;;1.13;1.10;;;15.20;90.50;;;;;;4870120;29;20201;-78
2023/05/04 02:14:09;;;;;;;2.10;1.33;;;15.20;90.20;;;;;;4874916;29;20257;-80
2023/05/04 02:16:38;;;;;;;0.73;0.73;;;15.20;90.40;;;;;;4869662;29;20293;-81
2023/05/04 02:19:07;;;;;;;1.43;1.13;;;15.20;90.30;;;;;;4871015;29;20244;-79
2023/05/04 02:21:35;;;;;;;0.70;0.70;;;15.20;90.20;;;;;;4872242;29;20260;-81
2023/05/04 02:24:05;;;;;;;0.40;0.40;;;15.20;90.10;;;;;;4873636;29;20562;-79
2023/05/04 02:26:35;;;;;;;4.10;2.00;;;15.20;90.30;;;;;;4868073;29;20253;-80
2023/05/04 02:29:05;;;;;;;1.30;1.20;;;15.20;90.00;;;;;;4877077;29;20201;-81
2023/05/04 02:31:33;;;;;;;1.77;1.47;;;15.30;89.90;;;;;;4868366;29;20265;-83
2023/05/04 02:34:02;;;;;;;0.97;0.77;;;15.30;90.00;;;;;;4873957;29;20220;-80
2023/05/04 02:36:30;;;;;;;0.43;0.43;;;15.30;90.00;;;;;;4872328;29;20276;-81
2023/05/04 02:38:59;;;;;;;1.87;1.17;;;15.30;89.90;;;;;;4872505;29;21101;-81
2023/05/04 02:41:27;;;;;;;2.90;1.40;;;15.40;89.90;;;;;;4875869;29;20924;-80
2023/05/04 02:43:56;;;;;;;1.10;0.70;;;15.30;90.20;;;;;;4875396;29;20249;-80
2023/05/04 02:46:26;;;;;;;0.70;0.70;;;15.40;90.10;;;;;;4873651;29;20273;-79
2023/05/04 02:48:55;;;;;;;1.27;0.90;;;15.40;90.20;;;;;;4875158;29;20212;-81
2023/05/04 02:51:23;;;;;;;1.60;1.17;;;15.30;90.40;;;;;;4873068;29;20200;-81
2023/05/04 02:53:51;;;;;;;0.77;0.77;;;15.30;90.60;;;;;;4877300;29;20197;-78
2023/05/04 02:56:20;;;;;;;1.70;0.83;;;15.20;90.90;;;;;;4863261;29;20252;-79
2023/05/04 02:58:48;;;;;;;1.90;1.20;;;15.30;90.60;;;;;;4868257;29;20193;-79
2023/05/04 03:01:16;;;;;;;0.60;0.53;;;15.30;90.90;;;;;;4867033;29;20194;-79
2023/05/04 03:03:46;;;;;;;1.50;1.37;;;15.30;90.70;;;;;;4877396;29;20197;-80
2023/05/04 03:06:15;;;;;;;0.57;0.50;;;15.30;90.70;;;;;;4877344;29;20223;-79
2023/05/04 03:08:43;;;;;;;0.60;0.57;;;15.30;91.00;;;;;;4875426;29;20593;-79
2023/05/04 03:11:11;;;;;;;1.47;1.37;;;15.30;91.00;;;;;;4879352;29;20205;-78
2023/05/04 03:13:39;;;;;;;5.23;2.10;;;15.20;91.60;;;;;;4875458;29;20276;-80
2023/05/04 03:16:08;;;;;;;8.90;1.50;;;15.20;91.50;;;;;;4879091;29;20229;-79
2023/05/04 03:18:36;;;;;;;2.10;1.27;;;15.20;91.70;;;;;;4877123;29;20285;-80
2023/05/04 03:21:06;;;;;;;1.70;1.00;;;15.20;91.60;;;;;;4877745;29;20231;-79
2023/05/04 03:23:35;;;;;;;1.37;1.23;;;15.10;91.90;;;;;;4875393;29;22701;-81
2023/05/04 03:26:03;;;;;;;1.83;1.57;;;15.10;92.20;;;;;;4876078;29;20201;-80
2023/05/04 03:28:32;;;;;;;1.77;1.00;;;15.10;92.10;;;;;;4878918;29;20249;-80
2023/05/04 03:31:00;;;;;;;2.63;1.70;;;15.10;92.00;;;;;;4873371;29;20197;-79
2023/05/04 03:33:28;;;;;;;0.63;0.63;;;15.10;91.70;;;;;;4868863;29;20684;-80
2023/05/04 03:35:58;;;;;;;2.00;0.57;;;15.10;91.60;;;;;;4874063;29;20234;-80
2023/05/04 03:38:28;;;;;;;2.07;1.27;;;15.10;91.50;;;;;;4875670;29;20239;-79
2023/05/04 03:40:56;;;;;;;1.37;0.87;;;15.20;91.50;;;;;;4881759;29;20204;-80
2023/05/04 03:43:24;;;;;;;1.17;1.07;;;15.10;91.90;;;;;;4875027;29;20224;-80
2023/05/04 03:45:53;;;;;;;2.10;1.33;;;15.10;92.30;;;;;;4874823;29;20212;-79
2023/05/04 03:48:21;;;;;;;1.47;1.07;;;15.10;92.00;;;;;;4879045;29;20208;-79
2023/05/04 03:50:49;;;;;;;2.97;1.70;;;15.10;92.10;;;;;;4877338;29;20674;-80
2023/05/04 03:53:18;;;;;;;3.00;1.70;;;15.10;92.20;;;;;;4872400;29;20224;-79
2023/05/04 03:55:47;;;;;;;4.00;1.40;;;15.10;92.10;;;;;;4877207;29;20208;-79
2023/05/04 03:58:16;;;;;;;3.37;2.27;;;15.10;92.30;;;;;;4881014;29;20197;-79
2023/05/04 04:00:44;;;;;;;0.93;0.83;;;15.00;92.90;;;;;;4874446;29;20201;-77
2023/05/04 04:03:12;;;;;;;1.87;1.33;;;15.00;93.00;;;;;;4878309;29;20201;-78
2023/05/04 04:05:41;;;;;;;1.10;1.00;;;15.00;93.00;;;;;;4873204;29;20224;-79
2023/05/04 04:08:09;;;;;;;2.17;1.10;;;15.00;93.00;;;;;;4875718;29;20257;-80
2023/05/04 04:10:38;;;;;;;2.43;1.43;;;15.00;92.80;;;;;;4874362;29;20230;-79
2023/05/04 04:13:08;;;;;;;0.70;0.70;;;15.00;92.80;;;;;;4868348;29;20202;-79
2023/05/04 04:15:36;;;;;;;1.53;1.40;;;15.00;92.90;;;;;;4870454;29;20288;-80
2023/05/04 04:18:04;;;;;;;4.13;1.10;;;15.00;93.00;;;;;;4877294;29;20328;-79
2023/05/04 04:20:33;;;;;;;2.07;1.63;;;15.00;93.20;;;;;;4876715;29;20288;-82
2023/05/04 04:23:01;;;;;;;1.43;0.70;;;15.00;93.40;;;;;;4876192;29;20202;-79
2023/05/04 04:25:30;;;;;;;1.60;1.03;;;15.00;93.30;;;;;;4876648;29;20198;-80
2023/05/04 04:27:58;;;;;;;3.93;1.73;;;15.00;93.10;;;;;;4881103;29;20612;-80
2023/05/04 04:30:28;;;;;;;0.97;0.97;;;15.00;93.30;;;;;;4875274;29;20193;-79
2023/05/04 04:32:56;;;;;;;3.50;2.17;;;14.90;93.20;;;;;;4879064;29;20205;-77
2023/05/04 04:35:26;;;;;;;1.23;1.13;;;14.90;93.30;;;;;;4868654;29;20212;-79
2023/05/04 04:37:54;;;;;;;2.00;1.40;;;15.00;93.10;;;;;;4874392;29;20233;-78
2023/05/04 04:40:23;;;;;;;1.43;1.33;;;15.00;93.10;;;;;;4876097;29;20841;-78
2023/05/04 04:42:51;;;;;;;0.97;0.90;;;15.00;93.10;;;;;;4876376;29;20229;-79
2023/05/04 04:45:20;;;;;;;1.27;1.00;;;15.00;93.10;;;;;;4873901;29;20215;-79
2023/05/04 04:47:50;;;;;;;2.80;1.87;;;14.90;93.30;;;;;;4877919;29;20204;-78
2023/05/04 04:50:18;;;;;;;1.08;1.00;;;14.90;93.30;;;;;;4873479;29;20483;-79
2023/05/04 04:52:47;;;;;;;2.53;1.53;;;14.90;93.30;;;;;;4871439;29;20198;-77
2023/05/04 04:55:16;;;;;;;2.93;1.40;;;15.00;93.10;;;;;;4868978;29;20238;-79
2023/05/04 04:57:44;;;;;;;4.30;1.70;;;15.00;93.60;;;;;;4874588;29;20649;-78
2023/05/04 05:00:13;;;;;;;3.23;2.07;;;15.00;93.40;;;;;;4871849;29;20733;-80
2023/05/04 05:02:42;;;;;;;1.77;1.03;;;15.00;93.60;;;;;;4876112;29;20202;-80
2023/05/04 05:05:12;;;;;;;2.10;1.97;;;15.00;93.50;;;;;;4874935;29;20241;-78
2023/05/04 05:07:41;;;;;;;1.03;1.00;;;15.00;93.50;;;;;;4876989;29;20201;-80
2023/05/04 05:10:11;;;;;;;1.93;1.60;;;15.00;93.70;;;;;;4863188;29;20662;-77
2023/05/04 05:12:40;;;;;;;1.73;1.20;;;15.00;93.70;;;;;;4871413;29;20233;-79
2023/05/04 05:15:09;;;;;;;2.83;1.83;;;14.90;93.60;;;;;;4870175;29;20194;-79
2023/05/04 05:17:38;;;;;;;1.40;1.00;;;15.00;93.40;;;;;;4871580;29;20233;-79
2023/05/04 05:20:09;;;;;;;1.23;1.03;;;15.00;93.20;;;;;;4870441;29;20204;-79
2023/05/04 05:22:39;;;;;;;2.27;1.60;;;15.10;93.20;;;;;;4869393;29;20676;-77
2023/05/04 05:25:08;;;;;;;1.20;1.10;;;15.10;93.20;;;;;;4870772;29;20205;-77
2023/05/04 05:27:37;;;;;;;13.23;1.73;;;15.20;93.10;;;;;;4873353;29;20193;-76
2023/05/04 05:30:06;;;;;;;8.37;2.03;;;15.20;92.90;;;;;;4866152;29;20201;-78
2023/05/04 05:32:35;;;;;;;2.20;1.10;;;15.20;92.80;;;;;;4859586;29;20563;-79
2023/05/04 05:35:03;;;;;;;2.67;0.87;;;15.20;92.70;;;;;;4873122;29;20687;-78
2023/05/04 05:37:32;;;;;;;0.70;0.70;;;15.20;92.70;;;;;;4867713;29;20226;-77
2023/05/04 05:40:04;;;;;;;1.27;1.17;;;15.20;92.80;;;;;;4874117;29;20242;-77
2023/05/04 05:42:33;;;;;;;0.50;0.50;;;15.20;92.90;;;;;;4875364;29;20193;-78
2023/05/04 05:45:03;;;;;;;1.43;1.23;;;15.20;92.80;;;;;;4877308;29;20197;-79
2023/05/04 05:47:31;;;;;;;2.07;1.20;;;15.30;92.80;;;;;;4869585;29;21082;-78
2023/05/04 05:50:00;;;;;;;2.20;1.10;;;15.30;92.70;;;;;;4870918;29;20213;-77
2023/05/04 05:52:28;;;;;;;0.80;0.80;;;15.30;92.90;;;;;;4873973;29;20233;-78
2023/05/04 05:54:56;;;;;;;2.87;1.03;;;15.30;92.80;;;;;;4867051;29;20208;-77
2023/05/04 05:57:32;;;;;;;4.67;2.00;;;15.20;93.10;;;;;;4873724;29;20226;-78
2023/05/04 06:00:08;;;;;;;1.20;1.10;;;15.20;93.00;;;;;;4874182;29;20205;-79
2023/05/04 06:02:37;;;;;;;1.50;1.10;;;15.20;93.10;;;;;;4881842;29;20196;-78
2023/05/04 06:05:06;;;;;;;3.33;1.93;;;15.20;93.10;;;;;;4879028;29;22115;-78
2023/05/04 06:07:34;;;;;;;2.13;1.53;;;15.10;93.40;;;;;;4866142;29;20202;-79
2023/05/04 06:10:04;;;;;;;1.00;0.90;;;15.10;93.30;;;;;;4877188;29;20242;-77
2023/05/04 06:12:34;;;;;;;3.60;1.37;;;15.10;93.20;;;;;;4873091;29;20222;-78
2023/05/04 06:15:02;;;;;;;3.33;1.23;;;15.10;93.50;;;;;;4876285;29;20257;-78
2023/05/04 06:17:31;;;;;;;3.30;0.77;;;15.10;93.40;;;;;;4878604;29;20232;-79
2023/05/04 06:19:59;;;;;;;1.37;0.80;;;15.20;93.30;;;;;;4874866;29;20202;-76
2023/05/04 06:22:27;;;;;;;1.97;1.50;;;15.10;93.30;;;;;;4866345;29;20209;-78
2023/05/04 06:24:56;;;;;;;1.73;1.50;;;15.00;93.60;;;;;;4877625;29;20218;-76
2023/05/04 06:27:31;;;;;;;1.20;0.87;;;15.10;93.60;;;;;;4881235;29;20204;-77
2023/05/04 06:30:01;;;;;;;8.87;1.80;;;15.10;93.60;;;;;;4873246;29;20197;-77
2023/05/04 06:32:30;;;;;;;2.17;1.20;;;15.00;93.60;;;;;;4873680;29;20220;-78
2023/05/04 06:34:58;;;;;;;3.70;1.70;;;15.00;93.80;;;;;;4872120;29;20202;-78
2023/05/04 06:37:27;;;;;;;7.27;2.37;;;15.10;93.70;;;;;;4869024;29;20221;-76
2023/05/04 06:39:55;;;;;;;1.97;1.57;;;15.10;93.70;;;;;;4869753;29;20253;-78
2023/05/04 06:42:24;;;;;;;1.30;1.17;;;15.10;93.80;;;;;;4868115;29;20548;-79
2023/05/04 06:44:52;;;;;;;2.63;1.67;;;15.00;93.90;;;;;;4874175;29;20193;-79
2023/05/04 06:47:22;;;;;;;3.93;1.63;;;15.10;93.90;;;;;;4873280;29;20201;-78
2023/05/04 06:49:51;;;;;;;1.40;1.17;;;15.10;93.90;;;;;;4864610;29;20228;-79
2023/05/04 06:52:20;;;;;;;1.80;0.93;;;15.10;93.90;;;;;;4866227;29;20285;-78
2023/05/04 06:54:48;;;;;;;1.77;1.30;;;15.10;93.90;;;;;;4867327;29;20208;-78
2023/05/04 06:57:17;;;;;;;2.53;1.57;;;15.00;94.00;;;;;;4872264;29;20819;-78
2023/05/04 06:59:45;;;;;;;2.43;1.03;;;15.10;94.10;;;;;;4869185;29;20232;-78
2023/05/04 07:02:13;;;;;;;1.30;1.20;;;15.00;94.20;;;;;;4866735;29;20298;-77
2023/05/04 07:04:43;;;;;;;2.43;1.40;;;15.00;94.30;;;;;;4874307;29;20266;-79
2023/05/04 07:07:11;;;;;;;1.80;1.33;;;15.10;94.20;;;;;;4875543;29;20208;-78
2023/05/04 07:09:42;;;;;;;1.77;1.47;;;15.10;94.60;;;;;;4872263;29;20260;-77
2023/05/04 07:12:10;;;;;;;1.70;1.53;;;15.10;94.30;;;;;;4870909;29;20205;-77
2023/05/04 07:14:39;;;;;;;3.73;2.70;;;15.00;94.50;;;;;;4877845;29;20209;-77
2023/05/04 07:17:08;;;;;;;2.67;1.57;;;15.00;94.40;;;;;;4870163;29;20561;-77
2023/05/04 07:19:37;;;;;;;1.63;1.53;;;15.00;94.50;;;;;;4874621;29;20229;-78
2023/05/04 07:22:06;;;;;;;2.57;1.20;;;15.10;94.60;;;;;;4871359;29;20201;-80
2023/05/04 07:24:35;;;;;;;1.90;1.27;;;15.10;94.40;;;;;;4868537;29;20194;-78
2023/05/04 07:27:03;;;;;;;2.47;1.33;;;15.10;94.70;;;;;;4873124;29;20205;-77
2023/05/04 07:29:32;;;;;;;2.73;1.70;;;15.10;94.50;;;;;;4868429;29;20205;-79
2023/05/04 07:32:00;;;;;;;1.60;1.10;;;15.10;94.50;;;;;;4874419;29;20752;-78
2023/05/04 07:34:29;;;;;;;6.23;1.53;;;15.10;94.50;;;;;;4872070;29;20232;-78
2023/05/04 07:37:14;;;;;;;1.60;1.27;;;15.10;94.40;;;;;;4870773;29;20189;-81
2023/05/04 07:39:43;;;;;;;2.10;1.87;;;15.10;94.50;;;;;;4874809;29;20697;-78
2023/05/04 07:42:11;;;;;;;1.00;0.90;;;15.10;94.70;;;;;;4873092;29;20202;-77
2023/05/04 07:44:40;;;;;;;2.53;1.53;;;15.10;94.60;;;;;;4874648;29;20208;-78
2023/05/04 07:47:08;;;;;;;2.57;1.57;;;15.20;94.80;;;;;;4870842;29;20236;-78
2023/05/04 07:49:37;;;;;;;5.60;1.73;;;15.20;95.10;;;;;;4871477;29;20200;-78
2023/05/04 07:52:05;;;;;;;2.93;1.30;;;15.10;94.60;;;;;;4869319;29;20208;-76
2023/05/04 07:54:36;;;;;;;1.60;1.13;;;15.20;94.50;;;;;;4874119;29;20200;-79
2023/05/04 07:57:04;;;;;;;2.07;1.63;;;15.20;94.50;;;;;;4873370;29;20271;-80
2023/05/04 07:59:33;;;;;;;1.93;1.20;;;15.30;94.40;;;;;;4877855;29;20224;-79
2023/05/04 08:02:01;;;;;;;1.70;0.97;;;15.30;94.80;;;;;;4869910;29;20201;-80
2023/05/04 08:04:30;;;;;;;1.03;0.67;;;15.30;94.50;;;;;;4873230;29;20207;-80
2023/05/04 08:06:58;;;;;;;1.00;0.80;;;15.30;94.40;;;;;;4870699;29;20258;-79
2023/05/04 08:09:27;;;;;;;1.30;1.10;;;15.40;94.50;;;;;;4873256;29;20330;-78
2023/05/04 08:11:56;;;;;;;1.90;1.00;;;15.40;94.70;;;;;;4872886;29;20343;-78
2023/05/04 08:14:25;;;;;;;1.30;0.87;;;15.40;94.40;;;;;;4875800;29;20288;-78
2023/05/04 08:16:53;;;;;;;1.83;1.17;;;15.50;94.40;;;;;;4874420;29;20693;-79
2023/05/04 08:19:22;;;;;;;1.63;1.33;;;15.50;94.40;;;;;;4878383;29;20560;-78
2023/05/04 08:21:51;;;;;;;1.33;1.23;;;15.50;94.60;;;;;;4874712;29;23022;-79
2023/05/04 08:24:20;;;;;;;1.87;1.10;;;15.50;94.60;;;;;;4872780;29;20282;-78
2023/05/04 08:26:48;;;;;;;1.23;0.90;;;15.50;94.40;;;;;;4873314;29;20701;-78
2023/05/04 08:29:36;;;;;;;0.90;0.90;;;15.60;94.60;;;;;;4870876;29;20208;-78
2023/05/04 08:32:06;;;;;;;1.40;1.30;;;15.60;94.70;;;;;;4870487;29;20219;-77
2023/05/04 08:34:36;;;;;;;2.47;1.10;;;15.60;94.50;;;;;;4866795;29;20193;-77
2023/05/04 08:37:04;;;;;;;1.23;0.97;;;15.70;94.50;;;;;;4870427;29;20205;-76
2023/05/04 08:39:33;;;;;;;2.10;1.47;;;15.70;94.80;;;;;;4867244;29;20268;-77
2023/05/04 08:42:02;;;;;;;3.40;1.67;;;15.70;94.70;;;;;;4868936;29;20669;-76
2023/05/04 08:44:30;;;;;;;1.43;0.83;;;15.70;94.40;;;;;;4865837;29;20207;-76
2023/05/04 08:47:03;;;;;;;2.50;1.50;;;15.70;94.50;;;;;;4871894;29;20260;-77
2023/05/04 08:49:32;;;;;;;2.10;1.90;;;15.70;94.50;;;;;;4873270;29;20208;-77
2023/05/04 08:52:01;;;;;;;2.70;1.40;;;15.80;94.50;;;;;;4872182;29;20530;-78
2023/05/04 08:54:29;;;;;;;3.57;1.40;;;15.80;94.50;;;;;;4870789;29;20189;-78
2023/05/04 08:56:58;;;;;;;2.57;1.63;;;15.80;94.60;;;;;;4873415;29;20682;-77
2023/05/04 08:59:29;;;;;;;2.17;1.00;;;15.80;94.70;;;;;;4874138;29;20273;-77
2023/05/04 09:01:58;;;;;;;4.67;1.60;;;15.90;94.50;;;;;;4870072;29;20268;-77
2023/05/04 09:04:28;;;;;;;1.60;1.07;;;15.90;94.50;;;;;;4876803;29;20252;-77
2023/05/04 09:06:57;;;;;;;3.87;1.37;;;15.90;94.40;;;;;;4874335;29;20211;-77
2023/05/04 09:09:28;;;;;;;2.70;2.07;;;15.90;94.90;;;;;;4878685;29;20198;-80
2023/05/04 09:11:57;;;;;;;2.07;1.70;;;15.90;94.60;;;;;;4874067;29;20253;-79
2023/05/04 09:14:34;;;;;;;12.33;2.40;;;16.00;94.70;;;;;;4868512;29;20288;-79
2023/05/04 09:17:12;;;;;;;0.93;0.93;;;16.00;94.80;;;;;;4869005;29;20189;-80
2023/05/04 09:19:43;;;;;;;1.80;1.63;;;16.00;95.10;;;;;;4871742;29;20224;-80
2023/05/04 09:22:16;;;;;;;2.90;1.63;;;16.00;95.10;;;;;;4875163;29;20550;-79
2023/05/04 09:24:45;;;;;;;1.07;0.97;;;16.00;95.20;;;;;;4868047;29;20201;-79
2023/05/04 09:27:16;;;;;;;2.27;1.13;;;16.00;95.00;;;;;;4872597;29;20220;-79
2023/05/04 09:29:53;;;;;;;3.03;1.60;;;16.00;95.00;;;;;;4866033;29;20205;-79
2023/05/04 09:32:22;;;;;;;1.70;0.93;;;16.00;95.00;;;;;;4864949;29;20280;-78
2023/05/04 09:34:53;;;;;;;2.33;1.27;;;16.00;95.00;;;;;;4866715;29;20482;-78
2023/05/04 09:37:22;;;;;;;10.73;1.43;;;16.10;95.00;;;;;;4870402;29;20204;-79
2023/05/04 09:39:55;;;;;;;0.77;0.77;;;16.10;95.10;;;;;;4869009;29;20231;-78
2023/05/04 09:42:24;;;;;;;0.90;0.90;;;16.10;95.00;;;;;;4865258;29;20288;-78
2023/05/04 09:45:03;;;;;;;3.60;1.63;;;16.10;95.40;;;;;;4868066;29;20201;-79
2023/05/04 09:47:37;;;;;;;2.03;1.07;;;16.10;95.40;;;;;;4868003;29;20299;-78
2023/05/04 09:50:14;;;;;;;2.33;1.57;;;16.20;95.20;;;;;;4871131;29;21045;-79
2023/05/04 09:52:47;;;;;;;3.27;1.20;;;16.10;95.40;;;;;;4867059;29;20209;-79
2023/05/04 09:55:17;;;;;;;5.17;1.87;;;16.10;95.60;;;;;;4866860;29;20297;-78
2023/05/04 09:57:47;;;;;;;4.90;1.63;;;16.10;95.70;;;;;;4873347;29;20260;-78
2023/05/04 10:00:17;;;;;;;2.23;1.30;;;16.20;95.60;;;;;;4867390;29;20222;-79
2023/05/04 10:02:46;;;;;;;1.80;1.20;;;16.20;95.70;;;;;;4864487;29;20225;-77
2023/05/04 10:05:20;;;;;;;4.10;1.70;;;16.20;95.60;;;;;;4871955;29;20213;-79
2023/05/04 10:07:48;;;;;;;3.63;1.63;;;16.20;95.70;;;;;;4873768;29;20288;-80
2023/05/04 10:10:17;;;;;;;1.47;1.37;;;16.30;95.60;;;;;;4869306;29;20198;-80
2023/05/04 10:12:45;;;;;;;2.63;1.53;;;16.40;95.60;;;;;;4872166;29;20247;-77
2023/05/04 10:15:15;;;;;;;1.13;1.10;;;16.40;95.50;;;;;;4873773;29;20554;-80
2023/05/04 10:18:05;;;;;;;1.53;1.20;;;16.40;95.30;;;;;;4866179;29;20295;-78
2023/05/04 10:20:52;;;;;;;1.93;1.50;;;16.50;95.30;;;;;;4866511;29;20217;-78
2023/05/04 10:23:46;;;;;;;2.03;1.33;;;16.50;95.30;;;;;;4870728;29;20278;-81
2023/05/04 10:26:37;;;;;;;0.93;0.80;;;16.50;95.30;;;;;;4870147;29;20232;-80
2023/05/04 10:29:13;;;;;;;1.37;1.23;;;16.50;95.30;;;;;;4876070;29;20193;-80
2023/05/04 10:31:43;;;;;;;2.03;1.40;;;16.50;95.30;;;;;;4866705;29;20212;-80
2023/05/04 10:34:12;;;;;;;3.07;1.67;;;16.60;95.20;;;;;;4869975;29;20654;-80
2023/05/04 10:36:41;;;;;;;1.70;1.17;;;16.60;95.20;;;;;;4869739;29;20197;-78
2023/05/04 10:39:19;;;;;;;0.67;0.67;;;16.70;95.10;;;;;;4871358;29;20311;-80
2023/05/04 10:42:02;;;;;;;1.60;1.50;;;16.70;95.10;;;;;;4875014;29;20582;-79
2023/05/04 10:44:32;;;;;;;2.47;1.40;;;16.80;95.10;;;;;;4868961;29;20197;-80
2023/05/04 10:47:04;;;;;;;4.13;1.07;;;16.90;95.00;;;;;;4871957;29;20205;-80
2023/05/04 10:49:33;;;;;;;1.80;0.80;;;17.00;95.20;;;;;;4867956;29;20265;-79
2023/05/04 10:52:08;;;;;;;1.40;1.03;;;17.00;95.10;;;;;;4865104;29;20200;-81
2023/05/04 10:54:37;;;;;;;1.47;0.73;;;17.10;95.20;;;;;;4868789;29;20673;-82
2023/05/04 10:57:07;;;;;;;3.17;1.73;;;17.30;95.10;;;;;;4860868;29;20663;-81
2023/05/04 10:59:36;;;;;;;3.97;2.17;;;17.30;95.10;;;;;;4869109;29;20197;-79
2023/05/04 11:02:06;;;;;;;1.40;1.13;;;17.50;95.00;;;;;;4863959;29;20284;-79
2023/05/04 11:04:35;;;;;;;1.90;1.47;;;17.60;95.00;;;;;;4868794;29;20209;-81
2023/05/04 11:07:05;;;;;;;1.23;1.00;;;17.80;95.00;;;;;;4862883;29;20199;-83
2023/05/04 11:09:39;;;;;;;6.37;1.03;;;17.90;94.80;;;;;;4872305;29;20254;-78
2023/05/04 11:12:10;;;;;;;1.53;1.17;;;18.00;94.30;;;;;;4867560;29;20193;-81
2023/05/04 11:14:41;;;;;;;2.87;1.57;;;18.00;93.90;;;;;;4873158;29;20262;-77
2023/05/04 11:17:11;;;;;;;0.83;0.83;;;18.10;93.70;;;;;;4871847;29;20189;-77
2023/05/04 11:19:55;;;;;;;3.13;1.50;;;18.00;93.40;;;;;;4866709;29;20193;-81
2023/05/04 11:22:24;;;;;;;2.90;1.40;;;18.00;92.80;;;;;;4867208;29;20194;-79
2023/05/04 11:24:54;;;;;;;1.13;0.77;;;18.00;92.90;;;;;;4873245;29;20205;-81
2023/05/04 11:27:24;;;;;;;0.87;0.57;;;18.00;92.80;;;;;;4874029;29;20197;-81
2023/05/04 11:29:57;;;;;;;0.60;0.60;;;18.10;92.90;;;;;;4871235;29;20201;-77
2023/05/04 11:32:36;;;;;;;1.67;1.23;;;18.10;92.90;;;;;;4876967;29;20563;-76
2023/05/04 11:35:08;;;;;;;1.07;0.83;;;18.10;92.70;;;;;;4868820;29;22334;-76
2023/05/04 11:37:40;;;;;;;1.17;0.80;;;18.20;92.60;;;;;;4867991;29;20204;-79
2023/05/04 11:40:12;;;;;;;0.40;0.40;;;18.20;92.50;;;;;;4873917;29;20212;-78
2023/05/04 11:42:44;;;;;;;1.47;1.13;;;18.30;92.60;;;;;;4860613;29;20551;-79
2023/05/04 11:45:17;;;;;;;3.50;1.07;;;18.40;92.60;;;;;;4856188;29;20239;-76
2023/05/04 11:47:46;;;;;;;2.97;1.13;;;18.40;92.50;;;;;;4870721;29;20189;-76
2023/05/04 11:50:16;;;;;;;0.67;0.40;;;18.40;92.30;;;;;;4870467;29;20206;-75
2023/05/04 11:52:45;;;;;;;1.60;1.37;;;18.50;92.30;;;;;;4874401;29;20193;-77
2023/05/04 11:55:27;;;;;;;0.67;0.67;;;18.60;92.30;;;;;;4865503;29;20220;-78
2023/05/04 11:57:59;;;;;;;2.57;1.27;;;18.80;92.30;;;;;;4872050;29;20253;-78
2023/05/04 12:00:38;;;;;;;1.70;0.90;;;18.90;92.20;;;;;;4868320;29;20277;-77
2023/05/04 12:03:08;;;;;;;1.17;0.97;;;18.90;91.70;;;;;;4871438;29;20650;-76
2023/05/04 12:05:37;;;;;;;1.27;0.63;;;18.90;91.10;;;;;;4868735;29;20202;-78
2023/05/04 12:08:11;;;;;;;0.70;0.60;;;18.90;91.10;;;;;;4872010;29;20197;-78
2023/05/04 12:10:41;;;;;;;1.03;0.70;;;19.10;91.20;;;;;;4873005;29;20205;-77
2023/05/04 12:13:16;;;;;;;2.83;1.37;;;19.10;90.60;;;;;;4876658;29;20296;-78
2023/05/04 12:15:45;;;;;;;2.00;0.93;;;19.30;90.70;;;;;;4870821;29;20220;-80
2023/05/04 12:18:28;;;;;;;3.10;1.23;;;19.40;90.60;;;;;;4875402;29;20212;-79
2023/05/04 12:20:56;;;;;;;2.10;1.10;;;19.40;90.40;;;;;;4872776;29;20541;-77
2023/05/04 12:23:25;;;;;;;1.13;0.50;;;19.50;90.20;;;;;;4874535;29;20671;-76
2023/05/04 12:25:54;;;;;;;1.10;0.60;;;19.60;90.20;;;;;;4868069;29;20205;-77
2023/05/04 12:28:26;;;;;;;1.00;0.83;;;19.50;90.10;;;;;;4872896;29;20197;-76
2023/05/04 12:30:58;;;;;;;1.10;0.50;;;19.50;90.00;;;;;;4866962;29;20201;-77
2023/05/04 12:33:27;;;;;;;0.97;0.70;;;19.50;89.60;;;;;;4874000;29;20197;-77
2023/05/04 12:35:55;;;;;;;0.93;0.83;;;19.50;89.80;;;;;;4859647;29;20197;-77
2023/05/04 12:38:24;;;;;;;0.75;0.50;;;19.60;89.80;;;;;;4864018;29;20638;-77
2023/05/04 12:40:54;;;;;;;2.17;1.23;;;19.60;89.60;;;;;;4871949;29;20232;-76
2023/05/04 12:43:22;;;;;;;1.05;0.90;;;19.60;88.90;;;;;;4873108;29;20253;-78
2023/05/04 12:45:51;;;;;;;1.02;0.60;;;19.60;89.10;;;;;;4868864;29;20198;-77
2023/05/04 12:48:20;;;;;;;1.50;0.90;;;19.70;88.70;;;;;;4861388;29;20284;-77
2023/05/04 12:50:50;;;;;;;1.30;1.20;;;19.70;88.60;;;;;;4866217;29;20292;-77
2023/05/04 12:53:21;;;;;;;1.23;0.80;;;19.80;88.40;;;;;;4871756;29;20207;-77
2023/05/04 12:55:49;;;;;;;2.17;1.73;;;19.90;88.10;;;;;;4869378;29;20204;-78
2023/05/04 12:58:19;;;;;;;0.82;0.60;;;20.00;87.70;;;;;;4869131;29;20243;-77
2023/05/04 13:00:47;;;;;;;0.60;0.60;;;20.10;87.80;;;;;;4868127;29;20792;-80